createdAt,value
2019-06-18T00:00:07.361Z,1015.4
2019-06-18T00:01:07.387Z,1015.34
2019-06-18T00:02:07.409Z,1015.36
2019-06-18T00:03:07.432Z,1015.34
2019-06-18T00:04:07.457Z,1015.35
2019-06-18T00:05:07.481Z,1015.33
2019-06-18T00:06:07.504Z,1015.35
2019-06-18T00:08:07.557Z,1015.35
2019-06-18T00:09:07.587Z,1015.36
2019-06-18T00:10:07.605Z,1015.37
2019-06-18T00:11:07.626Z,1015.35
2019-06-18T00:12:07.649Z,1015.32
2019-06-18T00:13:07.674Z,1015.36
2019-06-18T00:14:07.696Z,1015.33
2019-06-18T00:15:07.720Z,1015.35
2019-06-18T00:16:07.745Z,1015.31
2019-06-18T00:17:10.381Z,1015.33
2019-06-18T00:18:10.592Z,1015.33
2019-06-18T00:19:10.430Z,1015.34
2019-06-18T00:20:07.841Z,1015.36
2019-06-18T00:21:07.876Z,1015.32
2019-06-18T00:23:07.914Z,1015.3
2019-06-18T00:24:10.436Z,1015.33
2019-06-18T00:25:07.961Z,1015.29
2019-06-18T00:26:07.989Z,1015.27
2019-06-18T00:27:10.672Z,1015.25
2019-06-18T00:28:10.185Z,1015.25
2019-06-18T00:29:10.766Z,1015.29
2019-06-18T00:30:08.082Z,1015.25
2019-06-18T00:31:10.476Z,1015.28
2019-06-18T00:32:08.129Z,1015.24
2019-06-18T00:33:08.154Z,1015.26
2019-06-18T00:34:08.178Z,1015.25
2019-06-18T00:35:10.756Z,1015.24
2019-06-18T00:36:10.562Z,1015.23
2019-06-18T00:37:10.680Z,1015.24
2019-06-18T00:38:10.518Z,1015.22
2019-06-18T00:39:08.296Z,1015.21
2019-06-18T00:40:09.756Z,1015.21
2019-06-18T00:41:08.484Z,1015.2
2019-06-18T00:42:08.369Z,1015.19
2019-06-18T00:43:08.393Z,1015.21
2019-06-18T00:44:08.418Z,1015.18
2019-06-18T00:45:08.442Z,1015.17
2019-06-18T00:46:08.466Z,1015.16
2019-06-18T00:47:08.488Z,1015.18
2019-06-18T00:48:08.512Z,1015.13
2019-06-18T00:49:08.539Z,1015.12
2019-06-18T00:50:08.559Z,1015.13
2019-06-18T00:51:08.604Z,1015.13
2019-06-18T00:52:08.607Z,1015.13
2019-06-18T00:53:08.631Z,1015.1
2019-06-18T00:55:08.684Z,1015.12
2019-06-18T00:56:08.704Z,1015.12
2019-06-18T00:57:08.729Z,1015.11
2019-06-18T00:58:08.751Z,1015.11
2019-06-18T00:59:08.775Z,1015.13
2019-06-18T01:00:08.799Z,1015.14
2019-06-18T01:01:08.826Z,1015.11
2019-06-18T01:02:08.864Z,1015.15
2019-06-18T01:03:08.870Z,1015.13
2019-06-18T01:04:08.893Z,1015.1
2019-06-18T01:05:08.916Z,1015.11
2019-06-18T01:06:08.942Z,1015.1
2019-06-18T01:07:08.966Z,1015.08
2019-06-18T01:08:08.993Z,1015.08
2019-06-18T01:09:09.013Z,1015.09
2019-06-18T01:11:09.061Z,1015.06
2019-06-18T01:12:09.091Z,1015.1
2019-06-18T01:13:09.107Z,1015.1
2019-06-18T01:14:09.132Z,1015.09
2019-06-18T01:15:09.154Z,1015.1
2019-06-18T01:16:18.529Z,1015.07
2019-06-18T01:17:09.211Z,1015.07
2019-06-18T01:18:09.227Z,1015.09
2019-06-18T01:19:09.254Z,1015.06
2019-06-18T01:20:09.274Z,1015.06
2019-06-18T01:21:09.297Z,1015.02
2019-06-18T01:22:09.321Z,1015.04
2019-06-18T01:23:09.345Z,1015.03
2019-06-18T01:24:09.370Z,1015.03
2019-06-18T01:25:09.395Z,1015.03
2019-06-18T01:27:09.439Z,1015.03
2019-06-18T01:28:09.466Z,1015.01
2019-06-18T01:29:09.488Z,1015.11
2019-06-18T01:30:09.510Z,1015.04
2019-06-18T01:31:09.533Z,1015.02
2019-06-18T01:32:09.592Z,1015.01
2019-06-18T01:33:09.590Z,1015
2019-06-18T01:34:12.273Z,1014.99
2019-06-18T01:35:09.633Z,1014.98
2019-06-18T01:36:09.652Z,1015.01
2019-06-18T01:37:09.685Z,1014.98
2019-06-18T01:38:09.700Z,1014.98
2019-06-18T01:39:09.723Z,1014.95
2019-06-18T01:40:09.747Z,1014.96
2019-06-18T01:41:09.777Z,1014.91
2019-06-18T01:43:12.343Z,1014.92
2019-06-18T01:44:09.841Z,1014.93
2019-06-18T01:45:09.864Z,1014.91
2019-06-18T01:46:09.889Z,1014.92
2019-06-18T01:47:09.913Z,1014.91
2019-06-18T01:48:12.612Z,1014.89
2019-06-18T01:49:09.959Z,1014.86
2019-06-18T01:50:09.990Z,1014.84
2019-06-18T01:51:10.007Z,1014.86
2019-06-18T01:52:10.030Z,1014.82
2019-06-18T01:53:10.055Z,1014.85
2019-06-18T01:54:12.703Z,1014.83
2019-06-18T01:55:10.102Z,1014.8
2019-06-18T01:56:10.126Z,1014.84
2019-06-18T01:58:10.175Z,1014.87
2019-06-18T01:59:12.495Z,1014.81
2019-06-18T02:00:12.566Z,1014.81
2019-06-18T02:01:12.770Z,1014.84
2019-06-18T02:02:12.403Z,1014.8
2019-06-18T02:03:12.370Z,1014.81
2019-06-18T02:04:12.949Z,1014.74
2019-06-18T02:05:12.220Z,1014.77
2019-06-18T02:06:10.359Z,1014.78
2019-06-18T02:07:12.774Z,1014.74
2019-06-18T02:08:12.369Z,1014.74
2019-06-18T02:09:12.651Z,1014.71
2019-06-18T02:10:10.515Z,1014.73
2019-06-18T02:11:12.373Z,1014.72
2019-06-18T02:12:12.812Z,1014.71
2019-06-18T02:13:12.478Z,1014.77
2019-06-18T02:14:13.075Z,1014.76
2019-06-18T02:15:13.047Z,1014.76
2019-06-18T02:16:12.950Z,1014.78
2019-06-18T02:17:12.649Z,1014.73
2019-06-18T02:18:12.615Z,1014.74
2019-06-18T02:19:13.254Z,1014.75
2019-06-18T02:20:12.739Z,1014.81
2019-06-18T02:21:12.504Z,1014.84
2019-06-18T02:22:12.926Z,1014.78
2019-06-18T02:23:13.043Z,1014.79
2019-06-18T02:24:12.935Z,1014.85
2019-06-18T02:25:13.625Z,1014.84
2019-06-18T02:26:13.832Z,1014.82
2019-06-18T02:27:12.970Z,1014.83
2019-06-18T02:28:12.360Z,1014.83
2019-06-18T02:30:13.708Z,1014.88
2019-06-18T02:31:13.931Z,1014.85
2019-06-18T02:32:14.162Z,1014.84
2019-06-18T02:33:14.427Z,1014.82
2019-06-18T02:34:12.580Z,1014.82
2019-06-18T02:35:13.450Z,1014.81
2019-06-18T02:36:12.956Z,1014.84
2019-06-18T02:37:13.307Z,1014.81
2019-06-18T02:38:13.108Z,1014.82
2019-06-18T02:39:13.141Z,1014.85
2019-06-18T02:40:12.809Z,1014.85
2019-06-18T02:41:12.439Z,1014.85
2019-06-18T02:42:13.196Z,1014.87
2019-06-18T02:43:13.221Z,1014.86
2019-06-18T02:44:12.856Z,1014.9
2019-06-18T02:46:13.256Z,1014.82
2019-06-18T02:47:13.331Z,1014.82
2019-06-18T02:48:12.677Z,1014.83
2019-06-18T02:49:12.989Z,1014.8
2019-06-18T02:50:13.513Z,1014.79
2019-06-18T02:51:12.964Z,1014.84
2019-06-18T02:52:12.566Z,1014.79
2019-06-18T02:53:13.072Z,1014.8
2019-06-18T02:54:12.861Z,1014.83
2019-06-18T02:55:13.206Z,1014.83
2019-06-18T02:56:13.114Z,1014.88
2019-06-18T02:57:13.331Z,1014.86
2019-06-18T02:58:12.326Z,1014.88
2019-06-18T02:59:12.991Z,1014.86
2019-06-18T03:00:13.735Z,1014.91
2019-06-18T03:02:13.233Z,1014.91
2019-06-18T03:03:12.271Z,1014.87
2019-06-18T03:04:12.935Z,1014.84
2019-06-18T03:05:13.356Z,1014.88
2019-06-18T03:06:12.865Z,1014.88
2019-06-18T03:07:13.384Z,1014.85
2019-06-18T03:08:12.603Z,1014.88
2019-06-18T03:09:12.889Z,1014.89
2019-06-18T03:10:13.068Z,1014.9
2019-06-18T03:11:13.430Z,1014.95
2019-06-18T03:12:12.792Z,1014.91
2019-06-18T03:13:13.257Z,1014.88
2019-06-18T03:14:12.997Z,1014.88
2019-06-18T03:15:13.545Z,1014.9
2019-06-18T03:16:12.839Z,1014.86
2019-06-18T03:18:13.169Z,1014.83
2019-06-18T03:19:13.018Z,1014.82
2019-06-18T03:20:12.435Z,1014.85
2019-06-18T03:21:15.715Z,1014.85
2019-06-18T03:22:12.497Z,1014.86
2019-06-18T03:23:13.293Z,1014.86
2019-06-18T03:24:13.228Z,1014.88
2019-06-18T03:25:13.392Z,1014.87
2019-06-18T03:26:12.483Z,1014.9
2019-06-18T03:27:12.937Z,1014.86
2019-06-18T03:28:12.955Z,1014.84
2019-06-18T03:29:12.907Z,1014.8
2019-06-18T03:30:14.849Z,1014.84
2019-06-18T03:31:15.260Z,1014.82
2019-06-18T03:33:14.956Z,1014.82
2019-06-18T03:34:14.740Z,1014.83
2019-06-18T03:35:12.707Z,1014.8
2019-06-18T03:36:12.871Z,1014.78
2019-06-18T03:37:12.744Z,1014.81
2019-06-18T03:38:12.507Z,1014.79
2019-06-18T03:39:13.170Z,1014.78
2019-06-18T03:40:12.979Z,1014.79
2019-06-18T03:41:13.154Z,1014.78
2019-06-18T03:42:13.049Z,1014.79
2019-06-18T03:43:12.890Z,1014.78
2019-06-18T03:44:12.678Z,1014.82
2019-06-18T03:45:13.179Z,1014.79
2019-06-18T03:46:12.691Z,1014.83
2019-06-18T03:47:12.739Z,1014.78
2019-06-18T03:48:13.019Z,1014.79
2019-06-18T03:49:12.761Z,1014.77
2019-06-18T03:50:13.262Z,1014.78
2019-06-18T03:51:12.858Z,1014.76
2019-06-18T03:52:13.250Z,1014.74
2019-06-18T03:53:13.508Z,1014.75
2019-06-18T03:54:13.338Z,1014.71
2019-06-18T03:55:13.742Z,1014.73
2019-06-18T03:56:12.924Z,1014.71
2019-06-18T03:57:13.509Z,1014.69
2019-06-18T03:58:12.972Z,1014.72
2019-06-18T03:59:13.049Z,1014.67
2019-06-18T04:00:13.511Z,1014.7
2019-06-18T04:01:13.042Z,1014.72
2019-06-18T04:02:13.119Z,1014.7
2019-06-18T04:03:13.088Z,1014.67
2019-06-18T04:05:13.817Z,1014.67
2019-06-18T04:06:13.159Z,1014.71
2019-06-18T04:07:13.283Z,1014.67
2019-06-18T04:08:13.206Z,1014.68
2019-06-18T04:09:13.434Z,1014.71
2019-06-18T04:10:13.253Z,1014.86
2019-06-18T04:11:13.344Z,1015.08
2019-06-18T04:12:13.517Z,1015.18
2019-06-18T04:13:13.324Z,1015.21
2019-06-18T04:14:13.759Z,1015.2
2019-06-18T04:15:13.371Z,1015.24
2019-06-18T04:16:14.004Z,1015.25
2019-06-18T04:17:13.420Z,1015.26
2019-06-18T04:18:13.444Z,1015.32
2019-06-18T04:19:13.470Z,1015.27
2019-06-18T04:21:13.522Z,1015.24
2019-06-18T04:22:13.624Z,1015.28
2019-06-18T04:23:13.771Z,1015.27
2019-06-18T04:24:13.657Z,1015.29
2019-06-18T04:25:13.623Z,1015.31
2019-06-18T04:26:13.649Z,1015.33
2019-06-18T04:27:13.676Z,1015.36
2019-06-18T04:28:13.704Z,1015.35
2019-06-18T04:29:13.735Z,1015.34
2019-06-18T04:30:13.757Z,1015.32
2019-06-18T04:31:13.934Z,1015.29
2019-06-18T04:32:13.813Z,1015.28
2019-06-18T04:33:13.841Z,1015.26
2019-06-18T04:34:13.866Z,1015.25
2019-06-18T04:35:13.895Z,1015.23
2019-06-18T04:37:14.084Z,1015.21
2019-06-18T04:38:13.980Z,1015.21
2019-06-18T04:39:14.009Z,1015.23
2019-06-18T04:40:14.037Z,1015.25
2019-06-18T04:41:14.066Z,1015.2
2019-06-18T04:42:14.098Z,1015.21
2019-06-18T04:43:14.127Z,1015.18
2019-06-18T04:44:14.159Z,1015.14
2019-06-18T04:45:14.187Z,1015.13
2019-06-18T04:46:14.216Z,1015.15
2019-06-18T04:47:16.520Z,1015.14
2019-06-18T04:48:23.149Z,1015.1
2019-06-18T04:49:14.308Z,1015.15
2019-06-18T04:50:14.338Z,1015.15
2019-06-18T04:51:14.365Z,1015.17
2019-06-18T04:53:14.427Z,1015.21
2019-06-18T04:54:14.458Z,1015.24
2019-06-18T04:55:14.489Z,1015.25
2019-06-18T04:56:14.521Z,1015.23
2019-06-18T04:57:14.551Z,1015.21
2019-06-18T04:58:14.582Z,1015.19
2019-06-18T04:59:14.617Z,1015.19
2019-06-18T05:00:14.646Z,1015.25
2019-06-18T05:01:14.678Z,1015.25
2019-06-18T05:02:14.710Z,1015.28
2019-06-18T05:03:14.741Z,1015.33
2019-06-18T05:04:14.775Z,1015.35
2019-06-18T05:05:14.807Z,1015.39
2019-06-18T05:06:14.839Z,1015.47
2019-06-18T05:08:14.906Z,1015.5
2019-06-18T05:09:14.937Z,1015.55
2019-06-18T05:10:14.974Z,1015.63
2019-06-18T05:11:15.013Z,1015.68
2019-06-18T05:12:15.038Z,1015.66
2019-06-18T05:13:15.071Z,1015.67
2019-06-18T05:14:15.105Z,1015.68
2019-06-18T05:15:15.141Z,1015.68
2019-06-18T05:16:15.173Z,1015.67
2019-06-18T05:17:15.208Z,1015.67
2019-06-18T05:18:15.239Z,1015.67
2019-06-18T05:19:15.273Z,1015.67
2019-06-18T05:20:15.311Z,1015.68
2019-06-18T05:21:15.344Z,1015.73
2019-06-18T05:22:15.380Z,1015.7
2019-06-18T05:23:15.413Z,1015.7
2019-06-18T05:24:15.444Z,1015.74
2019-06-18T05:25:15.477Z,1015.75
2019-06-18T05:26:15.516Z,1015.79
2019-06-18T05:27:15.545Z,1015.78
2019-06-18T05:28:15.584Z,1015.77
2019-06-18T05:29:15.615Z,1015.8
2019-06-18T05:30:15.702Z,1015.76
2019-06-18T05:31:15.685Z,1015.77
2019-06-18T05:32:15.719Z,1015.79
2019-06-18T05:33:15.779Z,1015.81
2019-06-18T05:34:15.789Z,1015.82
2019-06-18T05:35:15.859Z,1015.81
2019-06-18T05:36:15.858Z,1015.81
2019-06-18T05:37:15.899Z,1015.77
2019-06-18T05:38:15.930Z,1015.85
2019-06-18T05:40:16.000Z,1015.82
2019-06-18T05:41:16.035Z,1015.81
2019-06-18T05:42:16.076Z,1015.81
2019-06-18T05:43:16.103Z,1015.77
2019-06-18T05:44:16.140Z,1015.79
2019-06-18T05:45:16.177Z,1015.79
2019-06-18T05:46:16.209Z,1015.74
2019-06-18T05:47:16.246Z,1015.76
2019-06-18T05:48:16.282Z,1015.78
2019-06-18T05:49:16.316Z,1015.79
2019-06-18T05:50:18.103Z,1015.82
2019-06-18T05:51:16.391Z,1015.84
2019-06-18T05:52:28.742Z,1015.83
2019-06-18T05:53:16.459Z,1015.78
2019-06-18T05:54:16.511Z,1015.79
2019-06-18T05:56:16.567Z,1015.8
2019-06-18T05:57:16.604Z,1015.8
2019-06-18T05:58:16.658Z,1015.79
2019-06-18T05:59:16.675Z,1015.81
2019-06-18T06:00:16.711Z,1015.82
2019-06-18T06:01:16.752Z,1015.84
2019-06-18T06:02:16.783Z,1015.8
2019-06-18T06:03:16.819Z,1015.78
2019-06-18T06:04:16.859Z,1015.79
2019-06-18T06:05:16.892Z,1015.78
2019-06-18T06:06:16.937Z,1015.75
2019-06-18T06:07:16.967Z,1015.72
2019-06-18T06:08:17.001Z,1015.67
2019-06-18T06:09:17.039Z,1015.66
2019-06-18T06:10:17.077Z,1015.65
2019-06-18T06:12:17.150Z,1015.6
2019-06-18T06:13:17.184Z,1015.61
2019-06-18T06:14:17.220Z,1015.58
2019-06-18T06:15:17.261Z,1015.55
2019-06-18T06:16:17.291Z,1015.5
2019-06-18T06:17:17.329Z,1015.55
2019-06-18T06:18:17.364Z,1015.55
2019-06-18T06:19:18.166Z,1015.52
2019-06-18T06:20:17.437Z,1015.49
2019-06-18T06:21:17.474Z,1015.48
2019-06-18T06:22:17.513Z,1015.51
2019-06-18T06:23:17.546Z,1015.45
2019-06-18T06:24:17.582Z,1015.49
2019-06-18T06:25:17.619Z,1015.55
2019-06-18T06:26:17.654Z,1015.55
2019-06-18T06:28:17.727Z,1015.54
2019-06-18T06:29:17.764Z,1015.56
2019-06-18T06:30:17.803Z,1015.55
2019-06-18T06:31:17.846Z,1015.57
2019-06-18T06:32:17.888Z,1015.5
2019-06-18T06:33:17.908Z,1015.56
2019-06-18T06:34:17.952Z,1015.55
2019-06-18T06:35:17.984Z,1015.58
2019-06-18T06:36:18.018Z,1015.62
2019-06-18T06:37:18.054Z,1015.6
2019-06-18T06:38:18.091Z,1015.6
2019-06-18T06:39:18.158Z,1015.61
2019-06-18T06:40:18.171Z,1015.62
2019-06-18T06:41:18.206Z,1015.6
2019-06-18T06:43:18.282Z,1015.61
2019-06-18T06:44:18.390Z,1015.6
2019-06-18T06:45:18.356Z,1015.59
2019-06-18T06:46:18.390Z,1015.6
2019-06-18T06:47:18.425Z,1015.55
2019-06-18T06:48:18.468Z,1015.59
2019-06-18T06:49:30.741Z,1015.57
2019-06-18T06:50:18.539Z,1015.58
2019-06-18T06:51:18.574Z,1015.57
2019-06-18T06:52:18.615Z,1015.56
2019-06-18T06:53:18.672Z,1015.57
2019-06-18T06:54:18.687Z,1015.55
2019-06-18T06:55:18.726Z,1015.53
2019-06-18T06:56:18.764Z,1015.52
2019-06-18T06:57:18.876Z,1015.55
2019-06-18T06:58:25.680Z,1015.6
2019-06-18T06:59:18.876Z,1015.72
2019-06-18T07:00:18.918Z,1015.85
2019-06-18T07:01:18.950Z,1015.85
2019-06-18T07:02:18.994Z,1015.83
2019-06-18T07:03:19.072Z,1015.88
2019-06-18T07:04:22.570Z,1015.85
2019-06-18T07:05:19.109Z,1015.8
2019-06-18T07:06:19.136Z,1015.82
2019-06-18T07:07:19.183Z,1015.79
2019-06-18T07:08:19.212Z,1015.81
2019-06-18T07:09:19.264Z,1015.79
2019-06-18T07:10:19.287Z,1015.84
2019-06-18T07:11:19.324Z,1015.82
2019-06-18T07:12:19.362Z,1015.85
2019-06-18T07:13:19.399Z,1015.82
2019-06-18T07:15:19.478Z,1015.81
2019-06-18T07:16:19.513Z,1015.81
2019-06-18T07:17:19.555Z,1015.83
2019-06-18T07:18:19.607Z,1015.87
2019-06-18T07:19:19.628Z,1015.84
2019-06-18T07:20:19.663Z,1015.85
2019-06-18T07:21:19.733Z,1015.8
2019-06-18T07:22:19.741Z,1015.84
2019-06-18T07:23:22.237Z,1015.92
2019-06-18T07:24:19.815Z,1015.99
2019-06-18T07:25:19.864Z,1016.06
2019-06-18T07:26:19.890Z,1016.04
2019-06-18T07:27:19.932Z,1016.06
2019-06-18T07:28:22.912Z,1016.06
2019-06-18T07:29:22.185Z,1016.14
2019-06-18T07:31:23.013Z,1016.21
2019-06-18T07:32:20.768Z,1016.29
2019-06-18T07:33:20.158Z,1016.39
2019-06-18T07:34:20.196Z,1016.37
2019-06-18T07:35:27.431Z,1016.35
2019-06-18T07:36:22.840Z,1016.41
2019-06-18T07:37:20.314Z,1016.5
2019-06-18T07:38:22.867Z,1016.45
2019-06-18T07:39:22.418Z,1016.51
2019-06-18T07:40:22.553Z,1016.47
2019-06-18T07:41:22.523Z,1016.52
2019-06-18T07:42:23.080Z,1016.53
2019-06-18T07:43:22.772Z,1016.58
2019-06-18T07:44:22.886Z,1016.61
2019-06-18T07:45:22.747Z,1016.54
2019-06-18T07:47:22.771Z,1016.44
2019-06-18T07:48:22.959Z,1016.51
2019-06-18T07:49:23.138Z,1016.53
2019-06-18T07:50:24.096Z,1016.49
2019-06-18T07:51:23.386Z,1016.41
2019-06-18T07:52:22.326Z,1016.43
2019-06-18T07:53:22.270Z,1016.25
2019-06-18T07:54:22.865Z,1016.25
2019-06-18T07:55:22.820Z,1016.31
2019-06-18T07:56:22.610Z,1016.27
2019-06-18T07:57:23.991Z,1016.21
2019-06-18T07:58:22.531Z,1016.15
2019-06-18T07:59:22.532Z,1016.11
2019-06-18T08:00:23.503Z,1016.09
2019-06-18T08:01:22.768Z,1016.04
2019-06-18T08:03:23.320Z,1016.02
2019-06-18T08:04:23.211Z,1015.9
2019-06-18T08:05:22.308Z,1015.85
2019-06-18T08:06:22.293Z,1015.79
2019-06-18T08:07:23.180Z,1015.69
2019-06-18T08:08:23.418Z,1015.71
2019-06-18T08:09:23.240Z,1015.68
2019-06-18T08:10:23.553Z,1015.64
2019-06-18T08:11:22.774Z,1015.6
2019-06-18T08:12:22.247Z,1015.63
2019-06-18T08:13:23.497Z,1015.48
2019-06-18T08:14:23.226Z,1015.43
2019-06-18T08:15:23.341Z,1015.44
2019-06-18T08:16:23.285Z,1015.46
2019-06-18T08:18:23.291Z,1015.33
2019-06-18T08:19:24.668Z,1015.35
2019-06-18T08:20:31.875Z,1015.34
2019-06-18T08:21:23.271Z,1015.33
2019-06-18T08:22:23.249Z,1015.32
2019-06-18T08:23:22.842Z,1015.27
2019-06-18T08:24:23.584Z,1015.28
2019-06-18T08:25:22.407Z,1015.29
2019-06-18T08:26:23.028Z,1015.27
2019-06-18T08:27:22.998Z,1015.24
2019-06-18T08:28:22.451Z,1015.2
2019-06-18T08:29:22.794Z,1015.09
2019-06-18T08:30:29.415Z,1015.13
2019-06-18T08:31:23.515Z,1015.12
2019-06-18T08:32:22.782Z,1015.08
2019-06-18T08:33:22.888Z,1015.05
2019-06-18T08:34:22.459Z,1015.05
2019-06-18T08:35:22.798Z,1015.03
2019-06-18T08:36:22.517Z,1014.93
2019-06-18T08:37:23.104Z,1014.84
2019-06-18T08:38:24.269Z,1014.88
2019-06-18T08:39:22.886Z,1014.84
2019-06-18T08:40:22.667Z,1014.74
2019-06-18T08:41:22.942Z,1014.7
2019-06-18T08:42:23.102Z,1014.7
2019-06-18T08:43:23.219Z,1014.75
2019-06-18T08:44:22.810Z,1014.76
2019-06-18T08:45:22.846Z,1014.76
2019-06-18T08:46:23.419Z,1014.67
2019-06-18T08:47:22.921Z,1014.59
2019-06-18T08:48:22.958Z,1014.62
2019-06-18T08:50:23.029Z,1014.55
2019-06-18T08:51:23.065Z,1014.59
2019-06-18T08:52:23.102Z,1014.52
2019-06-18T08:53:23.138Z,1014.56
2019-06-18T08:54:23.175Z,1014.51
2019-06-18T08:55:23.211Z,1014.52
2019-06-18T08:56:23.632Z,1014.51
2019-06-18T08:57:23.318Z,1014.48
2019-06-18T08:58:23.321Z,1014.49
2019-06-18T08:59:23.358Z,1014.44
2019-06-18T09:00:23.393Z,1014.47
2019-06-18T09:01:27.414Z,1014.48
2019-06-18T09:02:23.468Z,1014.42
2019-06-18T09:03:29.006Z,1014.45
2019-06-18T09:04:23.535Z,1014.38
2019-06-18T09:06:23.931Z,1014.33
2019-06-18T09:07:23.642Z,1014.28
2019-06-18T09:08:23.678Z,1014.3
2019-06-18T09:09:23.713Z,1014.28
2019-06-18T09:10:23.751Z,1014.27
2019-06-18T09:11:23.826Z,1014.27
2019-06-18T09:12:23.820Z,1014.16
2019-06-18T09:13:23.857Z,1014.15
2019-06-18T09:14:23.907Z,1014.09
2019-06-18T09:15:23.926Z,1014.08
2019-06-18T09:16:23.962Z,1014.14
2019-06-18T09:17:23.998Z,1014.07
2019-06-18T09:18:24.033Z,1014.07
2019-06-18T09:19:24.067Z,1014.06
2019-06-18T09:20:24.103Z,1014.04
2019-06-18T09:22:24.173Z,1014.09
2019-06-18T09:23:24.209Z,1014.06
2019-06-18T09:24:24.243Z,1014.05
2019-06-18T09:25:24.293Z,1014.05
2019-06-18T09:26:24.313Z,1013.96
2019-06-18T09:27:24.349Z,1013.99
2019-06-18T09:28:24.383Z,1014.04
2019-06-18T09:29:24.419Z,1014
2019-06-18T09:30:24.452Z,1013.95
2019-06-18T09:31:24.497Z,1014.02
2019-06-18T09:32:24.521Z,1014.1
2019-06-18T09:33:24.555Z,1013.96
2019-06-18T09:34:24.590Z,1014.02
2019-06-18T09:35:24.638Z,1014.04
2019-06-18T09:36:24.674Z,1014.06
2019-06-18T09:38:24.729Z,1014.01
2019-06-18T09:39:24.764Z,1013.99
2019-06-18T09:40:24.801Z,1014
2019-06-18T09:41:24.830Z,1014
2019-06-18T09:42:24.869Z,1013.94
2019-06-18T09:43:24.900Z,1013.87
2019-06-18T09:44:24.933Z,1013.88
2019-06-18T09:45:24.968Z,1013.84
2019-06-18T09:46:25.002Z,1013.9
2019-06-18T09:47:25.035Z,1013.85
2019-06-18T09:48:25.072Z,1013.9
2019-06-18T09:49:25.117Z,1013.9
2019-06-18T09:50:25.138Z,1013.85
2019-06-18T09:51:26.967Z,1013.89
2019-06-18T09:53:25.241Z,1013.89
2019-06-18T09:54:25.274Z,1013.83
2019-06-18T09:55:25.312Z,1013.8
2019-06-18T09:56:25.342Z,1013.79
2019-06-18T09:57:25.376Z,1013.82
2019-06-18T09:58:25.503Z,1013.73
2019-06-18T09:59:25.442Z,1013.74
2019-06-18T10:00:25.485Z,1013.71
2019-06-18T10:01:25.514Z,1013.84
2019-06-18T10:02:25.545Z,1013.78
2019-06-18T10:03:25.581Z,1013.71
2019-06-18T10:04:25.641Z,1013.72
2019-06-18T10:05:25.693Z,1013.66
2019-06-18T10:06:25.679Z,1013.68
2019-06-18T10:07:25.714Z,1013.66
2019-06-18T10:08:25.753Z,1013.66
2019-06-18T10:09:25.778Z,1013.64
2019-06-18T10:10:25.816Z,1013.56
2019-06-18T10:11:25.845Z,1013.65
2019-06-18T10:12:25.879Z,1013.62
2019-06-18T10:13:25.912Z,1013.61
2019-06-18T10:14:25.947Z,1013.56
2019-06-18T10:15:25.981Z,1013.53
2019-06-18T10:16:26.013Z,1013.63
2019-06-18T10:17:26.051Z,1013.59
2019-06-18T10:18:26.078Z,1013.59
2019-06-18T10:19:26.111Z,1013.58
2019-06-18T10:20:26.143Z,1013.52
2019-06-18T10:21:36.499Z,1013.5
2019-06-18T10:22:26.217Z,1013.48
2019-06-18T10:23:26.243Z,1013.61
2019-06-18T10:25:26.310Z,1013.56
2019-06-18T10:26:26.343Z,1013.53
2019-06-18T10:27:26.377Z,1013.6
2019-06-18T10:28:26.408Z,1013.5
2019-06-18T10:29:33.617Z,1013.46
2019-06-18T10:30:26.476Z,1013.48
2019-06-18T10:31:26.522Z,1013.44
2019-06-18T10:32:26.543Z,1013.43
2019-06-18T10:33:26.572Z,1013.42
2019-06-18T10:34:26.608Z,1013.44
2019-06-18T10:35:26.640Z,1013.4
2019-06-18T10:36:26.670Z,1013.44
2019-06-18T10:37:26.704Z,1013.43
2019-06-18T10:38:26.735Z,1013.37
2019-06-18T10:39:26.767Z,1013.42
2019-06-18T10:41:26.833Z,1013.32
2019-06-18T10:42:26.865Z,1013.26
2019-06-18T10:43:26.897Z,1013.32
2019-06-18T10:44:26.930Z,1013.26
2019-06-18T10:45:26.963Z,1013.29
2019-06-18T10:46:26.998Z,1013.27
2019-06-18T10:47:27.027Z,1013.21
2019-06-18T10:48:27.116Z,1013.32
2019-06-18T10:49:27.091Z,1013.2
2019-06-18T10:50:27.123Z,1013.27
2019-06-18T10:51:27.155Z,1013.18
2019-06-18T10:52:27.188Z,1013.1
2019-06-18T10:53:27.220Z,1013.23
2019-06-18T10:54:27.255Z,1013.2
2019-06-18T10:55:27.283Z,1013.19
2019-06-18T10:57:27.353Z,1013.17
2019-06-18T10:58:27.389Z,1013.17
2019-06-18T10:59:27.412Z,1013.23
2019-06-18T11:00:27.465Z,1013.18
2019-06-18T11:01:27.474Z,1013.24
2019-06-18T11:02:27.508Z,1013.17
2019-06-18T11:03:27.538Z,1013.11
2019-06-18T11:04:27.569Z,1013.13
2019-06-18T11:05:27.600Z,1013.16
2019-06-18T11:06:29.790Z,1013.13
2019-06-18T11:07:27.665Z,1013.12
2019-06-18T11:08:27.697Z,1013.09
2019-06-18T11:09:27.740Z,1013.18
2019-06-18T11:10:27.762Z,1013.14
2019-06-18T11:11:27.788Z,1013.12
2019-06-18T11:13:27.851Z,1013.03
2019-06-18T11:14:27.882Z,1013.02
2019-06-18T11:15:27.917Z,1012.97
2019-06-18T11:16:27.944Z,1012.98
2019-06-18T11:17:27.975Z,1012.97
2019-06-18T11:18:28.004Z,1012.98
2019-06-18T11:19:28.036Z,1012.97
2019-06-18T11:20:28.068Z,1012.99
2019-06-18T11:21:28.102Z,1012.93
2019-06-18T11:22:28.203Z,1012.9
2019-06-18T11:23:35.016Z,1012.89
2019-06-18T11:24:28.190Z,1012.88
2019-06-18T11:25:28.222Z,1012.89
2019-06-18T11:26:28.253Z,1012.86
2019-06-18T11:28:28.315Z,1012.92
2019-06-18T11:29:28.346Z,1012.9
2019-06-18T11:30:28.376Z,1012.84
2019-06-18T11:31:28.406Z,1012.81
2019-06-18T11:32:28.440Z,1012.83
2019-06-18T11:33:28.467Z,1012.83
2019-06-18T11:34:28.499Z,1012.79
2019-06-18T11:35:28.529Z,1012.7
2019-06-18T11:36:28.561Z,1012.64
2019-06-18T11:37:28.590Z,1012.72
2019-06-18T11:38:28.620Z,1012.71
2019-06-18T11:39:28.659Z,1012.71
2019-06-18T11:40:28.681Z,1012.68
2019-06-18T11:41:28.715Z,1012.73
2019-06-18T11:42:28.743Z,1012.71
2019-06-18T11:43:28.774Z,1012.72
2019-06-18T11:44:28.806Z,1012.73
2019-06-18T11:45:28.834Z,1012.72
2019-06-18T11:46:28.878Z,1012.69
2019-06-18T11:47:28.901Z,1012.74
2019-06-18T11:48:28.923Z,1012.66
2019-06-18T11:49:28.954Z,1012.63
2019-06-18T11:50:28.987Z,1012.71
2019-06-18T11:51:29.021Z,1012.7
2019-06-18T11:52:33.106Z,1012.69
2019-06-18T11:53:29.083Z,1012.61
2019-06-18T11:54:29.106Z,1012.61
2019-06-18T11:55:29.176Z,1012.54
2019-06-18T11:56:29.166Z,1012.53
2019-06-18T11:57:29.201Z,1012.55
2019-06-18T11:58:29.225Z,1012.5
2019-06-18T12:00:29.286Z,1012.57
2019-06-18T12:01:29.316Z,1012.49
2019-06-18T12:02:29.346Z,1012.52
2019-06-18T12:03:29.376Z,1012.48
2019-06-18T12:04:29.411Z,1012.51
2019-06-18T12:05:29.437Z,1012.44
2019-06-18T12:06:29.468Z,1012.46
2019-06-18T12:07:29.498Z,1012.44
2019-06-18T12:08:29.562Z,1012.41
2019-06-18T12:09:29.591Z,1012.41
2019-06-18T12:10:29.587Z,1012.42
2019-06-18T12:11:29.617Z,1012.42
2019-06-18T12:12:29.647Z,1012.48
2019-06-18T12:13:29.678Z,1012.47
2019-06-18T12:14:29.708Z,1012.44
2019-06-18T12:16:29.767Z,1012.4
2019-06-18T12:17:29.798Z,1012.42
2019-06-18T12:18:29.826Z,1012.4
2019-06-18T12:19:29.857Z,1012.36
2019-06-18T12:20:33.096Z,1012.36
2019-06-18T12:21:29.917Z,1012.4
2019-06-18T12:22:42.849Z,1012.35
2019-06-18T12:23:29.977Z,1012.32
2019-06-18T12:24:30.014Z,1012.29
2019-06-18T12:25:30.055Z,1012.26
2019-06-18T12:26:30.067Z,1012.27
2019-06-18T12:27:30.097Z,1012.3
2019-06-18T12:28:30.125Z,1012.26
2019-06-18T12:29:30.155Z,1012.26
2019-06-18T12:30:30.186Z,1012.21
2019-06-18T12:32:41.125Z,1012.22
2019-06-18T12:33:32.598Z,1012.13
2019-06-18T12:34:33.021Z,1012.18
2019-06-18T12:35:32.673Z,1012.19
2019-06-18T12:36:32.625Z,1012.13
2019-06-18T12:37:32.788Z,1012.11
2019-06-18T12:38:30.433Z,1012.14
2019-06-18T12:39:32.661Z,1012.14
2019-06-18T12:40:32.675Z,1012.15
2019-06-18T12:41:32.863Z,1012.17
2019-06-18T12:42:30.551Z,1012.09
2019-06-18T12:43:30.577Z,1012.14
2019-06-18T12:44:32.919Z,1012.08
2019-06-18T12:45:33.493Z,1012.07
2019-06-18T12:46:33.533Z,1012.04
2019-06-18T12:48:32.898Z,1012.05
2019-06-18T12:49:32.329Z,1012